createdAt,value
2019-03-23T00:01:41.420Z,99.90
2019-03-23T00:04:11.327Z,99.90
2019-03-23T00:06:41.209Z,99.90
2019-03-23T00:09:11.226Z,99.90
2019-03-23T00:11:41.091Z,99.90
2019-03-23T00:14:10.937Z,99.90
2019-03-23T00:16:40.930Z,99.90
2019-03-23T00:19:10.859Z,99.90
2019-03-23T00:21:40.773Z,99.90
2019-03-23T00:24:10.653Z,99.90
2019-03-23T00:26:40.836Z,99.90
2019-03-23T00:29:10.923Z,99.90
2019-03-23T00:31:40.783Z,99.90
2019-03-23T00:34:10.646Z,99.90
2019-03-23T00:36:41.831Z,99.90
2019-03-23T00:39:11.927Z,99.90
2019-03-23T00:41:41.799Z,99.90
2019-03-23T00:44:11.844Z,99.90
2019-03-23T00:46:41.954Z,99.90
2019-03-23T00:49:11.820Z,99.90
2019-03-23T00:51:41.594Z,99.90
2019-03-23T00:54:11.648Z,99.90
2019-03-23T00:56:41.443Z,99.90
2019-03-23T00:59:11.333Z,99.90
2019-03-23T01:01:41.077Z,99.90
2019-03-23T01:04:10.952Z,99.90
2019-03-23T01:06:51.546Z,99.90
2019-03-23T01:09:12.432Z,99.90
2019-03-23T01:11:42.902Z,99.90
2019-03-23T01:14:12.763Z,99.90
2019-03-23T01:16:42.636Z,99.90
2019-03-23T01:19:12.512Z,99.90
2019-03-23T01:21:42.261Z,99.90
2019-03-23T01:24:12.127Z,99.90
2019-03-23T01:26:41.975Z,99.90
2019-03-23T01:29:11.854Z,99.90
2019-03-23T01:31:41.591Z,99.90
2019-03-23T01:34:11.370Z,99.90
2019-03-23T01:36:41.268Z,99.90
2019-03-23T01:39:11.176Z,99.90
2019-03-23T01:41:41.006Z,99.90
2019-03-23T01:44:10.789Z,99.90
2019-03-23T01:46:40.777Z,99.90
2019-03-23T01:49:11.020Z,99.90
2019-03-23T01:51:40.901Z,99.90
2019-03-23T01:54:10.753Z,99.90
2019-03-23T01:56:40.584Z,99.90
2019-03-23T01:59:10.434Z,99.90
2019-03-23T02:01:40.232Z,99.90
2019-03-23T02:04:10.279Z,99.90
2019-03-23T02:06:40.116Z,99.90
2019-03-23T02:09:09.967Z,99.90
2019-03-23T02:11:39.863Z,99.90
2019-03-23T02:14:09.644Z,99.90
2019-03-23T02:16:39.477Z,99.90
2019-03-23T02:19:09.533Z,99.90
2019-03-23T02:21:39.348Z,99.90
2019-03-23T02:24:09.223Z,99.90
2019-03-23T02:26:39.072Z,99.90
2019-03-23T02:29:08.865Z,99.90
2019-03-23T02:31:38.757Z,99.90
2019-03-23T02:34:08.652Z,99.90
2019-03-23T02:36:38.567Z,99.90
2019-03-23T02:39:08.533Z,99.90
2019-03-23T02:41:38.674Z,99.90
2019-03-23T02:44:08.551Z,99.90
2019-03-23T02:46:38.285Z,99.90
2019-03-23T02:49:08.156Z,99.90
2019-03-23T02:51:39.715Z,99.90
2019-03-23T02:54:09.584Z,99.90
2019-03-23T02:56:39.413Z,99.90
2019-03-23T02:59:09.269Z,99.90
2019-03-23T03:01:39.289Z,99.90
2019-03-23T03:04:09.404Z,99.90
2019-03-23T03:06:39.246Z,99.90
2019-03-23T03:09:09.092Z,99.90
2019-03-23T03:11:38.842Z,99.90
2019-03-23T03:14:08.625Z,99.90
2019-03-23T03:16:38.493Z,99.90
2019-03-23T03:19:08.351Z,99.90
2019-03-23T03:21:38.169Z,99.90
2019-03-23T03:24:08.033Z,99.90
2019-03-23T03:26:37.917Z,99.90
2019-03-23T03:29:07.745Z,99.90
2019-03-23T03:31:37.598Z,99.90
2019-03-23T03:34:07.559Z,99.90
2019-03-23T03:36:37.355Z,99.90
2019-03-23T03:39:08.435Z,99.90
2019-03-23T03:41:38.419Z,99.90
2019-03-23T03:44:08.353Z,99.90
2019-03-23T03:46:38.178Z,99.90
2019-03-23T03:49:12.782Z,99.90
2019-03-23T03:51:39.477Z,99.90
2019-03-23T03:54:09.359Z,99.90
2019-03-23T03:56:39.117Z,99.90
2019-03-23T03:59:08.918Z,99.90
2019-03-23T04:01:38.640Z,99.90
2019-03-23T04:04:08.394Z,99.90
2019-03-23T04:06:38.212Z,99.90
2019-03-23T04:09:08.602Z,99.90
2019-03-23T04:11:38.476Z,99.90
2019-03-23T04:14:08.352Z,99.90
2019-03-23T04:16:38.081Z,99.90
2019-03-23T04:19:08.127Z,99.90
2019-03-23T04:21:37.944Z,99.90
2019-03-23T04:24:07.671Z,99.90
2019-03-23T04:26:39.294Z,99.90
2019-03-23T04:29:09.114Z,99.90
2019-03-23T04:31:38.840Z,99.90
2019-03-23T04:34:08.710Z,99.90
2019-03-23T04:36:38.573Z,99.90
2019-03-23T04:39:08.475Z,99.90
2019-03-23T04:41:38.213Z,99.90
2019-03-23T04:44:08.040Z,99.90
2019-03-23T04:46:38.001Z,99.90
2019-03-23T04:49:07.793Z,99.90
2019-03-23T04:51:37.559Z,99.90
2019-03-23T04:54:07.307Z,99.90
2019-03-23T04:56:37.125Z,99.90
2019-03-23T04:59:06.859Z,99.90
2019-03-23T05:01:36.695Z,99.90
2019-03-23T05:04:06.514Z,99.90
2019-03-23T05:06:36.359Z,99.90
2019-03-23T05:09:08.138Z,99.90
2019-03-23T05:11:37.921Z,99.90
2019-03-23T05:14:07.744Z,99.90
2019-03-23T05:16:37.486Z,99.90
2019-03-23T05:19:07.342Z,99.90
2019-03-23T05:21:37.218Z,99.90
2019-03-23T05:24:06.955Z,99.90
2019-03-23T05:26:36.983Z,99.90
2019-03-23T05:29:06.876Z,99.90
2019-03-23T05:31:36.626Z,99.90
2019-03-23T05:34:06.604Z,99.90
2019-03-23T05:36:36.464Z,99.90
2019-03-23T05:39:07.292Z,99.90
2019-03-23T05:41:37.060Z,99.90
2019-03-23T05:44:07.023Z,99.90
2019-03-23T05:46:36.716Z,99.90
2019-03-23T05:49:06.522Z,99.90
2019-03-23T05:51:36.323Z,99.90
2019-03-23T05:54:06.160Z,99.90
2019-03-23T05:56:36.107Z,99.90
2019-03-23T05:59:05.978Z,99.90
2019-03-23T06:01:36.051Z,99.90
2019-03-23T06:04:05.973Z,99.90
2019-03-23T06:06:35.795Z,99.90
2019-03-23T06:09:07.821Z,99.90
2019-03-23T06:11:37.889Z,99.90
2019-03-23T06:14:07.657Z,99.90
2019-03-23T06:16:37.724Z,99.90
2019-03-23T06:19:07.549Z,99.90
2019-03-23T06:21:37.436Z,99.90
2019-03-23T06:24:07.396Z,99.90
2019-03-23T06:26:37.234Z,99.90
2019-03-23T06:29:07.018Z,99.90
2019-03-23T06:31:36.896Z,99.90
2019-03-23T06:34:06.734Z,99.90
2019-03-23T06:36:36.966Z,99.90
2019-03-23T06:39:08.484Z,99.90
2019-03-23T06:41:38.253Z,99.90
2019-03-23T06:44:08.121Z,99.90
2019-03-23T06:46:38.133Z,99.90
2019-03-23T06:49:07.944Z,99.90
2019-03-23T06:51:37.695Z,99.90
2019-03-23T06:54:07.496Z,99.90
2019-03-23T06:56:37.242Z,99.90
2019-03-23T06:59:07.067Z,99.90
2019-03-23T07:01:36.848Z,99.90
2019-03-23T07:04:06.713Z,99.90
2019-03-23T07:06:36.850Z,99.90
2019-03-23T07:09:15.787Z,99.90
2019-03-23T07:11:39.601Z,99.90
2019-03-23T07:14:09.436Z,99.90
2019-03-23T07:16:39.333Z,99.90
2019-03-23T07:19:09.186Z,99.90
2019-03-23T07:21:39.133Z,99.90
2019-03-23T07:24:09.007Z,99.90
2019-03-23T07:26:38.861Z,99.90
2019-03-23T07:29:08.740Z,99.90
2019-03-23T07:31:38.714Z,99.90
2019-03-23T07:34:08.564Z,99.90
2019-03-23T07:36:38.416Z,99.90
2019-03-23T07:39:08.786Z,99.90
2019-03-23T07:41:38.692Z,99.90
2019-03-23T07:44:08.737Z,99.90
2019-03-23T07:46:38.593Z,99.90
2019-03-23T07:49:08.420Z,99.90
2019-03-23T07:51:38.256Z,99.90
2019-03-23T07:54:08.128Z,99.90
2019-03-23T07:56:37.979Z,99.90
2019-03-23T07:59:08.075Z,99.90
2019-03-23T08:01:38.243Z,99.90
2019-03-23T08:04:08.198Z,99.90
2019-03-23T08:06:38.419Z,99.90
2019-03-23T08:09:08.309Z,99.90
2019-03-23T08:11:38.047Z,99.90
2019-03-23T08:14:07.982Z,99.90
2019-03-23T08:16:37.928Z,99.90
2019-03-23T08:19:07.714Z,99.90
2019-03-23T08:21:37.482Z,99.90
2019-03-23T08:24:07.367Z,99.90
2019-03-23T08:26:37.148Z,99.90
2019-03-23T08:29:06.989Z,99.90
2019-03-23T08:31:36.820Z,99.90
2019-03-23T08:34:06.776Z,99.90
2019-03-23T08:36:36.614Z,99.90
2019-03-23T08:39:07.465Z,99.90
2019-03-23T08:41:37.418Z,99.90
2019-03-23T08:44:07.277Z,99.90
2019-03-23T08:46:37.166Z,99.90
2019-03-23T08:49:07.029Z,99.90
2019-03-23T08:51:37.001Z,99.90
2019-03-23T08:54:06.956Z,99.90
2019-03-23T08:56:37.495Z,99.90
2019-03-23T08:59:07.428Z,99.90
2019-03-23T09:01:37.368Z,99.90
2019-03-23T09:04:07.232Z,99.90
2019-03-23T09:06:37.044Z,99.90
2019-03-23T09:09:07.724Z,99.90
2019-03-23T09:11:37.613Z,99.90
2019-03-23T09:14:07.575Z,99.90
2019-03-23T09:16:37.448Z,99.90
2019-03-23T09:19:07.485Z,99.90
2019-03-23T09:21:37.395Z,99.90
2019-03-23T09:24:07.275Z,99.90
2019-03-23T09:26:37.156Z,99.90
2019-03-23T09:29:07.030Z,99.90
2019-03-23T09:31:36.904Z,99.90
2019-03-23T09:34:06.778Z,99.90
2019-03-23T09:36:36.518Z,99.90
2019-03-23T09:39:07.606Z,99.90
2019-03-23T09:41:37.475Z,99.90
2019-03-23T09:44:07.384Z,99.90
2019-03-23T09:46:37.260Z,99.90
2019-03-23T09:49:07.203Z,99.90
2019-03-23T09:51:37.068Z,99.90
2019-03-23T09:54:06.901Z,99.90
2019-03-23T09:56:36.786Z,99.90
2019-03-23T09:59:06.659Z,99.90
2019-03-23T10:01:36.414Z,99.90
2019-03-23T10:04:06.279Z,99.90
2019-03-23T10:06:36.159Z,99.90
2019-03-23T10:09:07.544Z,99.90
2019-03-23T10:11:37.395Z,99.90
2019-03-23T10:14:07.317Z,99.90
2019-03-23T10:16:37.432Z,99.90
2019-03-23T10:19:07.307Z,99.90
2019-03-23T10:21:37.089Z,99.90
2019-03-23T10:24:07.348Z,99.90
2019-03-23T10:26:37.236Z,99.90
2019-03-23T10:29:07.030Z,99.90
2019-03-23T10:31:36.889Z,99.90
2019-03-23T10:34:06.865Z,99.90
2019-03-23T10:36:36.745Z,99.90
2019-03-23T10:39:07.348Z,99.90
2019-03-23T10:41:37.443Z,99.90
2019-03-23T10:44:07.333Z,99.90
2019-03-23T10:46:37.129Z,99.90
2019-03-23T10:49:07.133Z,99.90
2019-03-23T10:51:37.235Z,99.90
2019-03-23T10:54:07.106Z,99.90
2019-03-23T10:56:36.957Z,99.90
2019-03-23T10:59:06.948Z,99.90
2019-03-23T11:01:36.845Z,99.90
2019-03-23T11:04:06.911Z,99.90
2019-03-23T11:06:36.811Z,99.90
2019-03-23T11:09:07.868Z,99.90
2019-03-23T11:11:37.737Z,99.90
2019-03-23T11:14:07.873Z,99.90
2019-03-23T11:16:37.612Z,99.90
2019-03-23T11:19:13.252Z,99.90
2019-03-23T11:21:39.152Z,99.90
2019-03-23T11:24:09.005Z,99.90
2019-03-23T11:26:38.903Z,99.90
2019-03-23T11:29:08.673Z,99.90
2019-03-23T11:31:38.693Z,99.90
2019-03-23T11:34:17.526Z,99.90
2019-03-23T11:36:40.240Z,99.90
2019-03-23T11:39:10.221Z,99.90
2019-03-23T11:41:40.108Z,99.90
2019-03-23T11:44:10.209Z,99.90
2019-03-23T11:46:40.053Z,99.90
2019-03-23T11:49:09.878Z,99.90
2019-03-23T11:51:39.789Z,99.90
2019-03-23T11:54:09.614Z,99.90
2019-03-23T11:56:39.517Z,99.90
2019-03-23T11:59:09.288Z,99.90
2019-03-23T12:01:39.136Z,99.90
2019-03-23T12:04:09.062Z,99.90
2019-03-23T12:06:38.945Z,99.90
2019-03-23T12:09:10.179Z,99.90
2019-03-23T12:11:39.969Z,99.90
2019-03-23T12:14:09.807Z,99.90
2019-03-23T12:16:40.049Z,99.90
2019-03-23T12:19:09.933Z,99.90
2019-03-23T12:21:39.714Z,99.90
2019-03-23T12:24:09.582Z,99.90
2019-03-23T12:26:39.552Z,99.90
2019-03-23T12:29:09.349Z,99.90
2019-03-23T12:31:39.241Z,99.90
2019-03-23T12:34:09.121Z,99.90
2019-03-23T12:36:38.954Z,99.90
2019-03-23T12:39:08.993Z,99.90
2019-03-23T12:41:38.864Z,99.90
2019-03-23T12:44:09.289Z,99.90
2019-03-23T12:46:47.938Z,99.90
2019-03-23T12:49:10.682Z,99.90
2019-03-23T12:51:40.536Z,99.90
2019-03-23T12:54:10.659Z,99.90
2019-03-23T12:56:40.582Z,99.90
2019-03-23T12:59:10.441Z,99.90
2019-03-23T13:01:40.397Z,99.70
2019-03-23T13:04:10.208Z,99.90
2019-03-23T13:06:40.018Z,99.90
2019-03-23T13:09:10.090Z,99.90
2019-03-23T13:11:39.944Z,99.90
2019-03-23T13:14:09.919Z,99.90
2019-03-23T13:16:39.754Z,99.90
2019-03-23T13:19:10.049Z,99.90
2019-03-23T13:21:40.060Z,99.70
2019-03-23T13:24:09.977Z,99.90
2019-03-23T13:26:39.834Z,99.50
2019-03-23T13:29:09.666Z,99.80
2019-03-23T13:31:39.538Z,99.80
2019-03-23T13:34:09.378Z,99.50
2019-03-23T13:36:39.190Z,99.60
2019-03-23T13:39:08.967Z,99.10
2019-03-23T13:41:47.332Z,98.50
2019-03-23T13:44:17.203Z,98.30
2019-03-23T13:46:47.204Z,98.80
2019-03-23T13:49:17.079Z,98.30
2019-03-23T13:51:46.905Z,97.40
2019-03-23T13:54:17.437Z,97.20
2019-03-23T13:56:47.369Z,98.00
2019-03-23T13:59:17.225Z,97.00
2019-03-23T14:01:47.066Z,97.10
2019-03-23T14:04:17.162Z,97.00
2019-03-23T14:06:47.012Z,97.90
2019-03-23T14:09:17.149Z,98.30
2019-03-23T14:11:54.605Z,98.60
2019-03-23T14:14:18.920Z,98.90
2019-03-23T14:16:48.858Z,98.70
2019-03-23T14:19:18.664Z,98.70
2019-03-23T14:21:48.497Z,98.60
2019-03-23T14:24:18.395Z,98.70
2019-03-23T14:26:49.190Z,98.40
2019-03-23T14:29:19.184Z,99.20
2019-03-23T14:31:49.036Z,99.90
2019-03-23T14:34:18.936Z,99.50
2019-03-23T14:36:48.802Z,99.90
2019-03-23T14:39:18.664Z,99.80
2019-03-23T14:41:48.572Z,99.70
2019-03-23T14:44:18.544Z,99.50
2019-03-23T14:46:48.440Z,99.60
2019-03-23T14:49:18.387Z,99.20
2019-03-23T14:51:48.228Z,99.70
2019-03-23T14:54:18.365Z,99.90
2019-03-23T14:56:48.239Z,99.60
2019-03-23T14:59:18.138Z,99.90
2019-03-23T15:01:48.006Z,99.90
2019-03-23T15:04:17.952Z,99.90
2019-03-23T15:06:47.823Z,99.80
2019-03-23T15:09:17.774Z,99.90
2019-03-23T15:11:47.646Z,99.90
2019-03-23T15:14:17.535Z,99.70
2019-03-23T15:16:47.470Z,99.90
2019-03-23T15:19:17.341Z,99.90
2019-03-23T15:21:47.188Z,99.90
2019-03-23T15:24:17.096Z,99.80
2019-03-23T15:26:46.947Z,99.50
2019-03-23T15:29:16.685Z,99.90
2019-03-23T15:31:46.434Z,99.90
2019-03-23T15:34:16.257Z,99.90
2019-03-23T15:36:46.373Z,99.90
2019-03-23T15:39:16.251Z,99.90
2019-03-23T15:41:46.225Z,99.90
2019-03-23T15:44:16.094Z,99.90
2019-03-23T15:46:45.968Z,99.90
2019-03-23T15:49:15.937Z,99.90
2019-03-23T15:51:45.793Z,99.90
2019-03-23T15:54:15.636Z,99.90
2019-03-23T15:56:45.613Z,99.90
2019-03-23T15:59:15.479Z,99.90
2019-03-23T16:01:45.324Z,99.90
2019-03-23T16:04:15.290Z,99.90
2019-03-23T16:06:45.178Z,99.90
2019-03-23T16:09:15.022Z,99.90
2019-03-23T16:11:44.878Z,99.90
2019-03-23T16:14:14.752Z,99.90
2019-03-23T16:16:44.636Z,99.90
2019-03-23T16:19:14.477Z,99.90
2019-03-23T16:21:44.605Z,99.90
2019-03-23T16:24:14.470Z,99.90
2019-03-23T16:26:44.440Z,99.90
2019-03-23T16:29:14.185Z,99.90
2019-03-23T16:31:44.013Z,99.90
2019-03-23T16:34:13.872Z,99.90
2019-03-23T16:36:43.741Z,99.90
2019-03-23T16:39:13.590Z,99.90
2019-03-23T16:41:43.395Z,99.90
2019-03-23T16:44:13.283Z,99.90
2019-03-23T16:46:43.649Z,99.90
2019-03-23T16:49:13.722Z,99.90
2019-03-23T16:51:43.564Z,99.90
2019-03-23T16:54:13.600Z,99.90
2019-03-23T16:56:43.627Z,99.90
2019-03-23T16:59:13.646Z,99.90
2019-03-23T17:01:43.447Z,99.90
2019-03-23T17:04:13.344Z,99.90
2019-03-23T17:06:46.516Z,99.90
2019-03-23T17:09:14.759Z,99.90
2019-03-23T17:11:44.601Z,99.90
2019-03-23T17:14:14.494Z,99.90
2019-03-23T17:16:44.453Z,99.90
2019-03-23T17:19:14.405Z,99.90
2019-03-23T17:21:44.344Z,99.90
2019-03-23T17:24:15.129Z,99.90
2019-03-23T17:26:44.930Z,99.90
2019-03-23T17:29:14.857Z,99.90
2019-03-23T17:31:44.752Z,99.90
2019-03-23T17:34:14.653Z,99.90
2019-03-23T17:36:44.562Z,99.90
2019-03-23T17:39:14.519Z,99.90
2019-03-23T17:41:44.488Z,99.90
2019-03-23T17:44:15.021Z,99.90
2019-03-23T17:46:44.867Z,99.90
2019-03-23T17:49:15.760Z,99.90
2019-03-23T17:51:45.739Z,99.90
2019-03-23T17:54:15.619Z,99.90
2019-03-23T17:56:47.393Z,99.90
2019-03-23T17:59:17.760Z,99.90
2019-03-23T18:01:47.909Z,99.90
2019-03-23T18:04:18.000Z,99.90
2019-03-23T18:06:48.232Z,99.90
2019-03-23T18:09:18.107Z,99.90
2019-03-23T18:11:48.008Z,99.90
2019-03-23T18:14:18.100Z,99.90
2019-03-23T18:16:48.008Z,99.90
2019-03-23T18:19:17.935Z,99.90
2019-03-23T18:21:47.830Z,99.90
2019-03-23T18:24:18.114Z,99.90
2019-03-23T18:26:47.864Z,99.90
2019-03-23T18:29:17.948Z,99.90
2019-03-23T18:31:47.959Z,99.90
2019-03-23T18:34:17.790Z,99.90
2019-03-23T18:36:47.724Z,99.90
2019-03-23T18:39:17.741Z,99.90
2019-03-23T18:41:47.608Z,99.90
2019-03-23T18:44:17.536Z,99.90
2019-03-23T18:46:47.586Z,99.90
2019-03-23T18:49:17.574Z,99.90
2019-03-23T18:51:47.510Z,99.90
2019-03-23T18:54:17.343Z,99.90
2019-03-23T18:56:47.297Z,99.90
2019-03-23T18:59:17.490Z,99.90
2019-03-23T19:01:47.317Z,99.90
2019-03-23T19:04:17.119Z,99.90
2019-03-23T19:06:47.022Z,99.90
2019-03-23T19:09:16.891Z,99.90
2019-03-23T19:11:47.177Z,99.90
2019-03-23T19:14:17.204Z,99.90
2019-03-23T19:16:47.164Z,99.90
2019-03-23T19:19:17.320Z,99.90
2019-03-23T19:21:47.288Z,99.90
2019-03-23T19:24:17.591Z,99.90
2019-03-23T19:26:47.533Z,99.90
2019-03-23T19:29:17.498Z,99.90
2019-03-23T19:31:47.402Z,99.90
2019-03-23T19:34:17.483Z,99.90
2019-03-23T19:36:47.486Z,99.90
2019-03-23T19:39:17.698Z,99.90
2019-03-23T19:41:47.902Z,99.90
2019-03-23T19:44:17.914Z,99.90
2019-03-23T19:46:47.980Z,99.90
2019-03-23T19:49:17.906Z,99.90
2019-03-23T19:51:47.790Z,99.90
2019-03-23T19:54:17.922Z,99.90
2019-03-23T19:56:47.841Z,99.90
2019-03-23T19:59:17.756Z,99.90
2019-03-23T20:01:47.610Z,99.90
2019-03-23T20:04:17.564Z,99.90
2019-03-23T20:06:47.548Z,99.90
2019-03-23T20:09:17.506Z,99.90
2019-03-23T20:11:47.396Z,99.90
2019-03-23T20:14:17.338Z,99.90
2019-03-23T20:16:47.320Z,99.90
2019-03-23T20:19:17.484Z,99.90
2019-03-23T20:21:47.389Z,99.90
2019-03-23T20:24:17.347Z,99.90
2019-03-23T20:26:47.692Z,99.90
2019-03-23T20:29:17.647Z,99.90
2019-03-23T20:31:47.560Z,99.90
2019-03-23T20:34:17.430Z,99.90
2019-03-23T20:36:47.337Z,99.90
2019-03-23T20:39:17.140Z,99.90
2019-03-23T20:41:47.174Z,99.90
2019-03-23T20:44:17.459Z,99.90
2019-03-23T20:46:47.493Z,99.90
2019-03-23T20:49:17.802Z,99.90
2019-03-23T20:51:48.206Z,99.90
2019-03-23T20:54:18.103Z,99.90
2019-03-23T20:56:48.027Z,99.90
2019-03-23T20:59:17.961Z,99.90
2019-03-23T21:01:47.930Z,99.90
2019-03-23T21:04:17.948Z,99.90
2019-03-23T21:06:47.922Z,99.90
2019-03-23T21:09:17.897Z,99.90
2019-03-23T21:11:47.810Z,99.90
2019-03-23T21:14:20.508Z,99.90
2019-03-23T21:16:50.212Z,99.90
2019-03-23T21:19:20.119Z,99.90
2019-03-23T21:21:49.984Z,99.90
2019-03-23T21:24:19.909Z,99.90
2019-03-23T21:26:49.830Z,99.90
2019-03-23T21:29:19.688Z,99.90
2019-03-23T21:31:49.713Z,99.90
2019-03-23T21:34:19.904Z,99.90
2019-03-23T21:36:49.803Z,99.90
2019-03-23T21:39:19.688Z,99.90
2019-03-23T21:41:49.612Z,99.90
2019-03-23T21:44:26.891Z,99.90
2019-03-23T21:46:51.178Z,99.90
2019-03-23T21:49:21.333Z,99.90
2019-03-23T21:51:51.299Z,99.90
2019-03-23T21:54:21.403Z,99.90
2019-03-23T21:56:51.307Z,99.90
2019-03-23T21:59:21.160Z,99.90
2019-03-23T22:01:51.022Z,99.90
2019-03-23T22:04:20.882Z,99.90
2019-03-23T22:06:50.717Z,99.90
2019-03-23T22:09:20.608Z,99.90
2019-03-23T22:11:50.565Z,99.90
2019-03-23T22:14:20.428Z,99.90
2019-03-23T22:16:50.264Z,99.90
2019-03-23T22:19:20.266Z,99.90
2019-03-23T22:21:50.020Z,99.90
2019-03-23T22:24:19.949Z,99.90
2019-03-23T22:26:49.889Z,99.90
2019-03-23T22:29:20.146Z,99.90
2019-03-23T22:31:50.241Z,99.90
2019-03-23T22:34:20.088Z,99.90
2019-03-23T22:36:49.941Z,99.90
2019-03-23T22:39:19.847Z,99.90
2019-03-23T22:41:49.679Z,99.90
2019-03-23T22:44:19.578Z,99.90
2019-03-23T22:46:49.385Z,99.90
2019-03-23T22:49:19.228Z,99.90
2019-03-23T22:51:48.997Z,99.90
2019-03-23T22:54:18.992Z,99.90
2019-03-23T22:56:48.878Z,99.90
2019-03-23T22:59:18.667Z,99.90
2019-03-23T23:01:48.647Z,99.90
2019-03-23T23:04:18.461Z,99.90
2019-03-23T23:06:48.329Z,99.90
2019-03-23T23:09:18.369Z,99.90
2019-03-23T23:11:48.247Z,99.90
2019-03-23T23:14:18.051Z,99.90
2019-03-23T23:16:47.942Z,99.90
2019-03-23T23:19:17.701Z,99.90
2019-03-23T23:21:47.635Z,99.90
2019-03-23T23:24:17.507Z,99.90
2019-03-23T23:26:47.284Z,99.90
2019-03-23T23:29:17.168Z,99.90
2019-03-23T23:31:47.125Z,99.90
2019-03-23T23:34:16.911Z,99.90
2019-03-23T23:36:46.829Z,99.90
2019-03-23T23:39:16.700Z,99.90
2019-03-23T23:41:46.887Z,99.90
2019-03-23T23:44:16.796Z,99.90
2019-03-23T23:46:46.711Z,99.90
2019-03-23T23:49:16.549Z,99.90
2019-03-23T23:51:50.346Z,99.90
2019-03-23T23:54:18.002Z,99.90
2019-03-23T23:56:47.953Z,99.90
2019-03-23T23:59:17.870Z,99.90
